MWCR

Details ICAO MWCR (GCM)
Name Owen Roberts Intl
Region Cayman Islands
Timezone America/Cayman (UTC-5.0)
Plans Departing 384
Arriving 414
Stats Elevation 6 ft / 2 m (AMSL)
Location 19.292800° -81.357800°
Runways 1
Magnetic Variation 5.166° W
Sunrise 2019-05-19 10:50:39 UTC / 2019-05-19 05:50:39 Local
Sunset 2019-05-19 23:55:58 UTC / 2019-05-19 18:55:58 Local
Advertisement - Login to hide

Runways

ID Width Length Bearing (true/mag) Surface Threshold Overrun Markings Lighting
08 148 ft / 45 m 7,024 ft / 2,141 m 75.86° / 81.02° CONCRETE 0 ft / 0 m 0 ft / 0 m PREC-APP EDGE THRESHOLD ODALS REIL-OMNI
26 148 ft / 45 m 7,024 ft / 2,141 m 255.86° / 261.03° CONCRETE 423 ft / 129 m 0 ft / 0 m PREC-APP EDGE THRESHOLD ODALS REIL-OMNI

Map

Weather


0- 5 10 15 20 25 30 35+ Temperature / °C

Clouds and Precipitation
Forecast for 2019-05-19 18:00 UTC. Updated 5 hours ago

Ground ~20,000 ft ~40,000 ft Winds

METAR

MWCR 192000Z 12016KT 8000 VCSH FEW014 32/24 Q1012

TAF

TAF MWCR 191700Z 1918/2018 13012KT 9999 VCSH SCT016 BECMG 2000/2002 09005KT 9999 FEW018

Frequencies

Recorded 132.35 MHz ATIS
Tower 118.00 MHz
Ground 121.90 MHz
Approach 120.20 MHz GRAND CAYMAN APP
Warning: Do not use this data for real-world aviation or navigation. No guarantee of current accuracy is given.